sensor_id;sensor_type;location;lat;lon;timestamp;P1;durP1;ratioP1;P2;durP2;ratioP2
6667;SDS011;3370;47.712;9.082;2023-03-31T00:01:34;8.47;;;4.37;;
6667;SDS011;3370;47.712;9.082;2023-03-31T00:04:06;10.03;;;4.30;;
6667;SDS011;3370;47.712;9.082;2023-03-31T00:06:35;8.10;;;4.17;;
6667;SDS011;3370;47.712;9.082;2023-03-31T00:09:06;8.50;;;4.53;;
6667;SDS011;3370;47.712;9.082;2023-03-31T00:11:38;10.97;;;5.13;;
6667;SDS011;3370;47.712;9.082;2023-03-31T00:14:05;10.17;;;4.67;;
6667;SDS011;3370;47.712;9.082;2023-03-31T00:16:32;14.77;;;4.40;;
6667;SDS011;3370;47.712;9.082;2023-03-31T00:19:00;11.07;;;4.77;;
6667;SDS011;3370;47.712;9.082;2023-03-31T00:21:26;9.20;;;4.70;;
6667;SDS011;3370;47.712;9.082;2023-03-31T00:24:07;7.70;;;4.27;;
6667;SDS011;3370;47.712;9.082;2023-03-31T00:26:36;8.20;;;4.33;;
6667;SDS011;3370;47.712;9.082;2023-03-31T00:29:04;5.80;;;4.43;;
6667;SDS011;3370;47.712;9.082;2023-03-31T00:31:32;8.77;;;4.37;;
6667;SDS011;3370;47.712;9.082;2023-03-31T00:33:58;8.00;;;4.10;;
6667;SDS011;3370;47.712;9.082;2023-03-31T00:36:24;5.10;;;4.30;;
6667;SDS011;3370;47.712;9.082;2023-03-31T00:38:54;7.53;;;4.27;;
6667;SDS011;3370;47.712;9.082;2023-03-31T00:41:24;11.27;;;4.40;;
6667;SDS011;3370;47.712;9.082;2023-03-31T00:44:05;9.07;;;4.47;;
6667;SDS011;3370;47.712;9.082;2023-03-31T00:46:45;5.47;;;4.23;;
6667;SDS011;3370;47.712;9.082;2023-03-31T00:49:39;9.20;;;5.00;;
6667;SDS011;3370;47.712;9.082;2023-03-31T00:55:01;8.37;;;4.83;;
6667;SDS011;3370;47.712;9.082;2023-03-31T00:57:34;11.40;;;4.87;;
6667;SDS011;3370;47.712;9.082;2023-03-31T01:00:05;8.27;;;4.43;;
6667;SDS011;3370;47.712;9.082;2023-03-31T01:02:42;10.47;;;5.40;;
6667;SDS011;3370;47.712;9.082;2023-03-31T01:05:21;7.73;;;5.23;;
6667;SDS011;3370;47.712;9.082;2023-03-31T01:07:52;8.63;;;5.33;;
6667;SDS011;3370;47.712;9.082;2023-03-31T01:10:20;10.17;;;5.27;;
6667;SDS011;3370;47.712;9.082;2023-03-31T01:12:47;7.60;;;4.20;;
6667;SDS011;3370;47.712;9.082;2023-03-31T01:15:17;9.53;;;5.20;;
6667;SDS011;3370;47.712;9.082;2023-03-31T01:17:43;10.87;;;4.50;;
6667;SDS011;3370;47.712;9.082;2023-03-31T01:23:33;11.00;;;5.17;;
6667;SDS011;3370;47.712;9.082;2023-03-31T01:41:36;10.63;;;6.10;;
6667;SDS011;3370;47.712;9.082;2023-03-31T01:47:23;10.80;;;5.30;;
6667;SDS011;3370;47.712;9.082;2023-03-31T01:50:17;14.50;;;5.70;;
6667;SDS011;3370;47.712;9.082;2023-03-31T01:58:35;8.90;;;5.07;;
6667;SDS011;3370;47.712;9.082;2023-03-31T02:01:30;8.70;;;5.20;;
6667;SDS011;3370;47.712;9.082;2023-03-31T02:04:57;11.53;;;5.40;;
6667;SDS011;3370;47.712;9.082;2023-03-31T02:07:34;13.17;;;5.73;;
6667;SDS011;3370;47.712;9.082;2023-03-31T02:10:08;8.70;;;5.80;;
6667;SDS011;3370;47.712;9.082;2023-03-31T02:12:37;12.10;;;6.00;;
6667;SDS011;3370;47.712;9.082;2023-03-31T02:15:08;14.50;;;6.00;;
6667;SDS011;3370;47.712;9.082;2023-03-31T02:17:42;12.03;;;5.60;;
6667;SDS011;3370;47.712;9.082;2023-03-31T02:20:12;8.63;;;5.77;;
6667;SDS011;3370;47.712;9.082;2023-03-31T02:22:42;5.90;;;5.37;;
6667;SDS011;3370;47.712;9.082;2023-03-31T02:25:14;9.70;;;5.67;;
6667;SDS011;3370;47.712;9.082;2023-03-31T02:27:47;13.07;;;5.63;;
6667;SDS011;3370;47.712;9.082;2023-03-31T02:30:21;11.03;;;5.43;;
6667;SDS011;3370;47.712;9.082;2023-03-31T02:32:53;24.00;;;18.70;;
6667;SDS011;3370;47.712;9.082;2023-03-31T02:35:19;9.60;;;7.63;;
6667;SDS011;3370;47.712;9.082;2023-03-31T02:37:46;7.97;;;6.67;;
6667;SDS011;3370;47.712;9.082;2023-03-31T02:40:20;6.53;;;5.30;;
6667;SDS011;3370;47.712;9.082;2023-03-31T02:42:47;13.93;;;5.80;;
6667;SDS011;3370;47.712;9.082;2023-03-31T02:51:08;8.87;;;5.60;;
6667;SDS011;3370;47.712;9.082;2023-03-31T03:00:05;9.23;;;5.37;;
6667;SDS011;3370;47.712;9.082;2023-03-31T03:06:39;9.67;;;5.53;;
6667;SDS011;3370;47.712;9.082;2023-03-31T03:12:37;8.83;;;6.10;;
6667;SDS011;3370;47.712;9.082;2023-03-31T03:15:23;10.50;;;5.57;;
6667;SDS011;3370;47.712;9.082;2023-03-31T03:17:59;10.30;;;6.00;;
6667;SDS011;3370;47.712;9.082;2023-03-31T03:20:27;11.43;;;5.27;;
6667;SDS011;3370;47.712;9.082;2023-03-31T03:22:53;15.50;;;5.37;;
6667;SDS011;3370;47.712;9.082;2023-03-31T03:25:19;15.60;;;5.97;;
6667;SDS011;3370;47.712;9.082;2023-03-31T03:27:45;10.17;;;5.43;;
6667;SDS011;3370;47.712;9.082;2023-03-31T03:30:12;7.57;;;5.53;;
6667;SDS011;3370;47.712;9.082;2023-03-31T03:32:38;9.73;;;6.10;;
6667;SDS011;3370;47.712;9.082;2023-03-31T03:35:05;11.83;;;6.23;;
6667;SDS011;3370;47.712;9.082;2023-03-31T03:37:32;12.17;;;5.00;;
6667;SDS011;3370;47.712;9.082;2023-03-31T03:39:58;10.27;;;5.60;;
6667;SDS011;3370;47.712;9.082;2023-03-31T03:42:24;13.93;;;6.03;;
6667;SDS011;3370;47.712;9.082;2023-03-31T03:44:50;11.50;;;5.60;;
6667;SDS011;3370;47.712;9.082;2023-03-31T03:47:15;10.10;;;5.77;;
6667;SDS011;3370;47.712;9.082;2023-03-31T03:49:41;11.77;;;5.90;;
6667;SDS011;3370;47.712;9.082;2023-03-31T03:52:07;10.73;;;6.30;;
6667;SDS011;3370;47.712;9.082;2023-03-31T03:54:33;11.20;;;5.40;;
6667;SDS011;3370;47.712;9.082;2023-03-31T03:56:58;10.77;;;6.23;;
6667;SDS011;3370;47.712;9.082;2023-03-31T03:59:24;8.17;;;5.37;;
6667;SDS011;3370;47.712;9.082;2023-03-31T04:01:50;13.40;;;5.93;;
6667;SDS011;3370;47.712;9.082;2023-03-31T04:04:16;9.67;;;5.30;;
6667;SDS011;3370;47.712;9.082;2023-03-31T04:06:42;10.30;;;5.70;;
6667;SDS011;3370;47.712;9.082;2023-03-31T04:09:08;14.17;;;5.97;;
6667;SDS011;3370;47.712;9.082;2023-03-31T04:11:34;11.83;;;5.80;;
6667;SDS011;3370;47.712;9.082;2023-03-31T04:14:00;11.20;;;5.60;;
6667;SDS011;3370;47.712;9.082;2023-03-31T04:16:26;12.20;;;6.80;;
6667;SDS011;3370;47.712;9.082;2023-03-31T04:18:52;11.60;;;6.50;;
6667;SDS011;3370;47.712;9.082;2023-03-31T04:21:21;7.83;;;6.13;;
6667;SDS011;3370;47.712;9.082;2023-03-31T04:23:51;10.07;;;5.10;;
6667;SDS011;3370;47.712;9.082;2023-03-31T04:26:28;14.60;;;5.80;;
6667;SDS011;3370;47.712;9.082;2023-03-31T04:29:06;10.30;;;5.97;;
6667;SDS011;3370;47.712;9.082;2023-03-31T04:31:34;10.20;;;5.10;;
6667;SDS011;3370;47.712;9.082;2023-03-31T04:34:02;8.60;;;6.13;;
6667;SDS011;3370;47.712;9.082;2023-03-31T04:36:31;11.93;;;6.27;;
6667;SDS011;3370;47.712;9.082;2023-03-31T04:38:57;25.90;;;7.13;;
6667;SDS011;3370;47.712;9.082;2023-03-31T04:41:25;10.70;;;5.97;;
6667;SDS011;3370;47.712;9.082;2023-03-31T04:43:51;15.03;;;5.93;;
6667;SDS011;3370;47.712;9.082;2023-03-31T04:46:17;10.07;;;6.37;;
6667;SDS011;3370;47.712;9.082;2023-03-31T04:48:44;13.23;;;7.60;;
6667;SDS011;3370;47.712;9.082;2023-03-31T04:51:10;17.20;;;6.30;;
6667;SDS011;3370;47.712;9.082;2023-03-31T04:53:39;9.20;;;6.77;;
6667;SDS011;3370;47.712;9.082;2023-03-31T04:56:05;7.87;;;5.77;;
6667;SDS011;3370;47.712;9.082;2023-03-31T04:58:31;11.20;;;5.53;;
6667;SDS011;3370;47.712;9.082;2023-03-31T05:00:57;13.00;;;7.30;;
6667;SDS011;3370;47.712;9.082;2023-03-31T05:03:23;15.40;;;6.90;;
6667;SDS011;3370;47.712;9.082;2023-03-31T05:05:49;12.27;;;6.27;;
6667;SDS011;3370;47.712;9.082;2023-03-31T05:08:15;12.63;;;6.43;;
6667;SDS011;3370;47.712;9.082;2023-03-31T05:10:40;9.23;;;5.60;;
6667;SDS011;3370;47.712;9.082;2023-03-31T05:13:08;14.23;;;6.47;;
6667;SDS011;3370;47.712;9.082;2023-03-31T05:15:36;13.60;;;6.00;;
6667;SDS011;3370;47.712;9.082;2023-03-31T05:18:03;13.20;;;6.33;;
6667;SDS011;3370;47.712;9.082;2023-03-31T05:20:30;7.90;;;5.53;;
6667;SDS011;3370;47.712;9.082;2023-03-31T05:22:55;7.80;;;6.23;;
6667;SDS011;3370;47.712;9.082;2023-03-31T05:25:21;12.80;;;5.80;;
6667;SDS011;3370;47.712;9.082;2023-03-31T05:27:47;8.60;;;5.80;;
6667;SDS011;3370;47.712;9.082;2023-03-31T05:30:14;11.50;;;6.20;;
6667;SDS011;3370;47.712;9.082;2023-03-31T05:32:41;9.37;;;5.80;;
6667;SDS011;3370;47.712;9.082;2023-03-31T05:35:07;9.43;;;5.10;;
6667;SDS011;3370;47.712;9.082;2023-03-31T05:37:33;7.70;;;6.00;;
6667;SDS011;3370;47.712;9.082;2023-03-31T05:39:59;12.10;;;5.47;;
6667;SDS011;3370;47.712;9.082;2023-03-31T05:42:25;16.30;;;7.20;;
6667;SDS011;3370;47.712;9.082;2023-03-31T05:44:51;10.80;;;5.60;;
6667;SDS011;3370;47.712;9.082;2023-03-31T05:47:16;8.20;;;6.03;;
6667;SDS011;3370;47.712;9.082;2023-03-31T05:49:42;9.33;;;6.83;;
6667;SDS011;3370;47.712;9.082;2023-03-31T05:52:08;7.40;;;5.80;;
6667;SDS011;3370;47.712;9.082;2023-03-31T05:54:35;16.47;;;7.20;;
6667;SDS011;3370;47.712;9.082;2023-03-31T05:57:01;13.60;;;7.10;;
6667;SDS011;3370;47.712;9.082;2023-03-31T05:59:27;11.30;;;7.13;;
6667;SDS011;3370;47.712;9.082;2023-03-31T06:01:53;15.07;;;7.10;;
6667;SDS011;3370;47.712;9.082;2023-03-31T06:04:19;13.33;;;7.90;;
6667;SDS011;3370;47.712;9.082;2023-03-31T06:06:44;11.13;;;7.40;;
6667;SDS011;3370;47.712;9.082;2023-03-31T06:09:14;10.47;;;6.90;;
6667;SDS011;3370;47.712;9.082;2023-03-31T06:11:41;12.73;;;6.97;;
6667;SDS011;3370;47.712;9.082;2023-03-31T06:14:06;11.60;;;7.60;;
6667;SDS011;3370;47.712;9.082;2023-03-31T06:16:32;9.17;;;6.93;;
6667;SDS011;3370;47.712;9.082;2023-03-31T06:18:58;13.50;;;6.97;;
6667;SDS011;3370;47.712;9.082;2023-03-31T06:21:24;15.93;;;8.40;;
6667;SDS011;3370;47.712;9.082;2023-03-31T06:23:49;14.83;;;7.33;;
6667;SDS011;3370;47.712;9.082;2023-03-31T06:26:20;13.63;;;7.90;;
6667;SDS011;3370;47.712;9.082;2023-03-31T06:28:46;13.03;;;8.93;;
6667;SDS011;3370;47.712;9.082;2023-03-31T06:31:14;17.43;;;8.07;;
6667;SDS011;3370;47.712;9.082;2023-03-31T06:33:43;11.60;;;8.03;;
6667;SDS011;3370;47.712;9.082;2023-03-31T06:36:09;13.97;;;8.77;;
6667;SDS011;3370;47.712;9.082;2023-03-31T06:38:39;22.63;;;8.33;;
6667;SDS011;3370;47.712;9.082;2023-03-31T06:41:05;12.60;;;8.63;;
6667;SDS011;3370;47.712;9.082;2023-03-31T06:43:33;15.80;;;8.50;;
6667;SDS011;3370;47.712;9.082;2023-03-31T06:45:59;14.77;;;8.07;;
6667;SDS011;3370;47.712;9.082;2023-03-31T06:48:25;11.07;;;7.77;;
6667;SDS011;3370;47.712;9.082;2023-03-31T06:50:52;21.70;;;8.80;;
6667;SDS011;3370;47.712;9.082;2023-03-31T06:53:18;12.20;;;8.70;;
6667;SDS011;3370;47.712;9.082;2023-03-31T06:55:46;11.63;;;9.47;;
6667;SDS011;3370;47.712;9.082;2023-03-31T06:58:12;13.50;;;8.77;;
6667;SDS011;3370;47.712;9.082;2023-03-31T07:00:37;17.83;;;10.00;;
6667;SDS011;3370;47.712;9.082;2023-03-31T07:03:04;18.40;;;8.80;;
6667;SDS011;3370;47.712;9.082;2023-03-31T07:05:30;11.40;;;6.70;;
6667;SDS011;3370;47.712;9.082;2023-03-31T07:07:57;11.63;;;6.23;;
6667;SDS011;3370;47.712;9.082;2023-03-31T07:10:25;6.03;;;4.40;;
6667;SDS011;3370;47.712;9.082;2023-03-31T07:12:53;7.80;;;5.00;;
6667;SDS011;3370;47.712;9.082;2023-03-31T07:15:19;7.50;;;4.63;;
6667;SDS011;3370;47.712;9.082;2023-03-31T07:17:45;9.70;;;4.60;;
6667;SDS011;3370;47.712;9.082;2023-03-31T07:20:15;7.60;;;4.07;;
6667;SDS011;3370;47.712;9.082;2023-03-31T07:22:43;5.70;;;4.77;;
6667;SDS011;3370;47.712;9.082;2023-03-31T07:25:11;8.43;;;4.40;;
6667;SDS011;3370;47.712;9.082;2023-03-31T07:27:41;6.33;;;4.20;;
6667;SDS011;3370;47.712;9.082;2023-03-31T07:30:08;7.97;;;4.00;;
6667;SDS011;3370;47.712;9.082;2023-03-31T07:32:41;6.17;;;3.90;;
6667;SDS011;3370;47.712;9.082;2023-03-31T07:35:08;6.20;;;3.40;;
6667;SDS011;3370;47.712;9.082;2023-03-31T07:37:39;7.43;;;3.90;;
6667;SDS011;3370;47.712;9.082;2023-03-31T07:40:12;4.70;;;3.40;;
6667;SDS011;3370;47.712;9.082;2023-03-31T07:42:50;7.27;;;4.17;;
6667;SDS011;3370;47.712;9.082;2023-03-31T07:45:16;8.73;;;4.03;;
6667;SDS011;3370;47.712;9.082;2023-03-31T07:47:44;10.20;;;4.03;;
6667;SDS011;3370;47.712;9.082;2023-03-31T07:50:12;6.03;;;5.20;;
6667;SDS011;3370;47.712;9.082;2023-03-31T07:52:39;9.17;;;5.00;;
6667;SDS011;3370;47.712;9.082;2023-03-31T07:55:05;9.63;;;6.00;;
6667;SDS011;3370;47.712;9.082;2023-03-31T07:57:32;7.23;;;5.13;;
6667;SDS011;3370;47.712;9.082;2023-03-31T07:59:59;10.03;;;6.40;;
6667;SDS011;3370;47.712;9.082;2023-03-31T08:02:29;12.33;;;5.10;;
6667;SDS011;3370;47.712;9.082;2023-03-31T08:04:55;8.90;;;5.70;;
6667;SDS011;3370;47.712;9.082;2023-03-31T08:07:21;8.73;;;6.50;;
6667;SDS011;3370;47.712;9.082;2023-03-31T08:09:47;12.93;;;6.50;;
6667;SDS011;3370;47.712;9.082;2023-03-31T08:12:13;8.10;;;5.73;;
6667;SDS011;3370;47.712;9.082;2023-03-31T08:14:39;11.90;;;5.40;;
6667;SDS011;3370;47.712;9.082;2023-03-31T08:17:06;6.20;;;3.43;;
6667;SDS011;3370;47.712;9.082;2023-03-31T08:19:31;3.47;;;2.33;;
6667;SDS011;3370;47.712;9.082;2023-03-31T08:21:57;4.80;;;2.73;;
6667;SDS011;3370;47.712;9.082;2023-03-31T08:24:23;2.30;;;2.20;;
6667;SDS011;3370;47.712;9.082;2023-03-31T08:26:48;4.20;;;2.77;;
6667;SDS011;3370;47.712;9.082;2023-03-31T08:29:14;3.53;;;2.20;;
6667;SDS011;3370;47.712;9.082;2023-03-31T08:31:40;4.77;;;2.30;;
6667;SDS011;3370;47.712;9.082;2023-03-31T08:34:06;4.23;;;2.70;;
6667;SDS011;3370;47.712;9.082;2023-03-31T08:36:32;4.63;;;2.93;;
6667;SDS011;3370;47.712;9.082;2023-03-31T08:38:57;4.00;;;2.20;;
6667;SDS011;3370;47.712;9.082;2023-03-31T08:44:23;2.30;;;2.20;;
6667;SDS011;3370;47.712;9.082;2023-03-31T08:47:00;4.17;;;2.80;;
6667;SDS011;3370;47.712;9.082;2023-03-31T08:49:37;4.93;;;2.67;;
6667;SDS011;3370;47.712;9.082;2023-03-31T08:52:13;4.20;;;2.60;;
6667;SDS011;3370;47.712;9.082;2023-03-31T08:54:46;3.73;;;2.30;;
6667;SDS011;3370;47.712;9.082;2023-03-31T08:57:18;5.17;;;2.67;;
6667;SDS011;3370;47.712;9.082;2023-03-31T08:59:56;3.60;;;2.67;;
6667;SDS011;3370;47.712;9.082;2023-03-31T09:02:26;6.40;;;2.67;;
6667;SDS011;3370;47.712;9.082;2023-03-31T09:04:58;4.10;;;2.63;;
6667;SDS011;3370;47.712;9.082;2023-03-31T09:10:37;4.17;;;2.37;;
6667;SDS011;3370;47.712;9.082;2023-03-31T09:16:34;2.93;;;2.30;;
6667;SDS011;3370;47.712;9.082;2023-03-31T09:19:53;16.87;;;2.70;;
6667;SDS011;3370;47.712;9.082;2023-03-31T09:22:32;4.07;;;2.33;;
6667;SDS011;3370;47.712;9.082;2023-03-31T09:27:46;4.37;;;2.20;;
6667;SDS011;3370;47.712;9.082;2023-03-31T09:30:21;3.30;;;2.40;;
6667;SDS011;3370;47.712;9.082;2023-03-31T09:32:57;6.33;;;2.87;;
6667;SDS011;3370;47.712;9.082;2023-03-31T09:35:43;6.03;;;2.63;;
6667;SDS011;3370;47.712;9.082;2023-03-31T09:38:12;5.60;;;3.23;;
6667;SDS011;3370;47.712;9.082;2023-03-31T09:40:39;6.57;;;3.17;;
6667;SDS011;3370;47.712;9.082;2023-03-31T09:43:23;2.70;;;2.20;;
6667;SDS011;3370;47.712;9.082;2023-03-31T09:45:52;4.17;;;2.30;;
6667;SDS011;3370;47.712;9.082;2023-03-31T09:48:25;5.30;;;2.50;;
6667;SDS011;3370;47.712;9.082;2023-03-31T09:51:05;4.83;;;2.53;;
6667;SDS011;3370;47.712;9.082;2023-03-31T09:53:51;5.50;;;2.07;;
6667;SDS011;3370;47.712;9.082;2023-03-31T09:56:59;13.23;;;2.40;;
6667;SDS011;3370;47.712;9.082;2023-03-31T09:59:18;8.33;;;2.50;;
6667;SDS011;3370;47.712;9.082;2023-03-31T10:01:51;5.07;;;2.63;;
6667;SDS011;3370;47.712;9.082;2023-03-31T10:04:23;8.83;;;3.17;;
6667;SDS011;3370;47.712;9.082;2023-03-31T10:07:10;6.10;;;2.93;;
6667;SDS011;3370;47.712;9.082;2023-03-31T10:09:37;9.37;;;3.27;;
6667;SDS011;3370;47.712;9.082;2023-03-31T10:12:05;7.13;;;3.30;;
6667;SDS011;3370;47.712;9.082;2023-03-31T10:14:39;15.23;;;4.00;;
6667;SDS011;3370;47.712;9.082;2023-03-31T10:17:15;6.23;;;3.10;;
6667;SDS011;3370;47.712;9.082;2023-03-31T10:24:46;10.03;;;3.00;;
6667;SDS011;3370;47.712;9.082;2023-03-31T10:29:55;6.10;;;1.97;;
6667;SDS011;3370;47.712;9.082;2023-03-31T10:32:24;6.90;;;2.30;;
6667;SDS011;3370;47.712;9.082;2023-03-31T10:34:52;4.10;;;2.60;;
6667;SDS011;3370;47.712;9.082;2023-03-31T10:37:21;5.90;;;2.73;;
6667;SDS011;3370;47.712;9.082;2023-03-31T10:39:59;5.87;;;2.63;;
6667;SDS011;3370;47.712;9.082;2023-03-31T10:42:36;9.33;;;2.30;;
6667;SDS011;3370;47.712;9.082;2023-03-31T10:45:13;7.20;;;2.60;;
6667;SDS011;3370;47.712;9.082;2023-03-31T10:47:55;5.60;;;2.43;;
6667;SDS011;3370;47.712;9.082;2023-03-31T10:50:29;3.23;;;2.07;;
6667;SDS011;3370;47.712;9.082;2023-03-31T10:53:31;6.00;;;2.00;;
6667;SDS011;3370;47.712;9.082;2023-03-31T10:58:45;2.60;;;2.00;;
6667;SDS011;3370;47.712;9.082;2023-03-31T11:14:04;2.90;;;2.20;;
6667;SDS011;3370;47.712;9.082;2023-03-31T11:17:28;5.57;;;2.17;;
6667;SDS011;3370;47.712;9.082;2023-03-31T11:25:53;6.83;;;2.17;;
6667;SDS011;3370;47.712;9.082;2023-03-31T11:40:45;6.77;;;2.40;;
6667;SDS011;3370;47.712;9.082;2023-03-31T11:45:40;2.67;;;2.00;;
6667;SDS011;3370;47.712;9.082;2023-03-31T11:48:35;7.03;;;2.80;;
6667;SDS011;3370;47.712;9.082;2023-03-31T11:51:45;6.20;;;2.37;;
6667;SDS011;3370;47.712;9.082;2023-03-31T11:54:33;5.17;;;2.03;;
6667;SDS011;3370;47.712;9.082;2023-03-31T11:57:32;5.37;;;1.70;;
6667;SDS011;3370;47.712;9.082;2023-03-31T12:02:37;5.10;;;2.10;;
6667;SDS011;3370;47.712;9.082;2023-03-31T12:05:11;5.73;;;2.10;;
6667;SDS011;3370;47.712;9.082;2023-03-31T12:07:51;3.10;;;1.60;;
6667;SDS011;3370;47.712;9.082;2023-03-31T12:10:44;4.83;;;1.93;;
6667;SDS011;3370;47.712;9.082;2023-03-31T12:21:59;3.33;;;1.80;;
6667;SDS011;3370;47.712;9.082;2023-03-31T12:24:31;2.83;;;1.53;;
6667;SDS011;3370;47.712;9.082;2023-03-31T12:27:09;4.73;;;2.40;;
6667;SDS011;3370;47.712;9.082;2023-03-31T12:30:09;3.33;;;1.47;;
6667;SDS011;3370;47.712;9.082;2023-03-31T12:32:54;5.33;;;1.40;;
6667;SDS011;3370;47.712;9.082;2023-03-31T12:44:51;6.33;;;1.80;;
6667;SDS011;3370;47.712;9.082;2023-03-31T12:47:50;3.43;;;1.30;;
6667;SDS011;3370;47.712;9.082;2023-03-31T12:56:56;1.83;;;1.23;;
6667;SDS011;3370;47.712;9.082;2023-03-31T12:59:28;3.60;;;1.40;;
6667;SDS011;3370;47.712;9.082;2023-03-31T13:02:23;0.80;;;0.80;;
6667;SDS011;3370;47.712;9.082;2023-03-31T13:04:49;1.30;;;1.20;;
6667;SDS011;3370;47.712;9.082;2023-03-31T13:09:45;2.90;;;1.10;;
6667;SDS011;3370;47.712;9.082;2023-03-31T13:12:17;0.77;;;0.77;;
6667;SDS011;3370;47.712;9.082;2023-03-31T13:14:47;4.13;;;1.07;;
6667;SDS011;3370;47.712;9.082;2023-03-31T13:17:24;1.07;;;0.97;;
6667;SDS011;3370;47.712;9.082;2023-03-31T13:19:53;1.00;;;0.97;;
6667;SDS011;3370;47.712;9.082;2023-03-31T13:22:26;0.70;;;0.70;;
6667;SDS011;3370;47.712;9.082;2023-03-31T13:31:25;2.30;;;0.80;;
6667;SDS011;3370;47.712;9.082;2023-03-31T13:33:43;2.33;;;0.77;;
6667;SDS011;3370;47.712;9.082;2023-03-31T13:42:21;1.93;;;0.93;;
6667;SDS011;3370;47.712;9.082;2023-03-31T13:45:03;3.20;;;1.00;;
6667;SDS011;3370;47.712;9.082;2023-03-31T13:50:34;2.87;;;0.77;;
6667;SDS011;3370;47.712;9.082;2023-03-31T13:53:27;2.90;;;1.10;;
6667;SDS011;3370;47.712;9.082;2023-03-31T14:11:58;1.07;;;0.97;;
6667;SDS011;3370;47.712;9.082;2023-03-31T14:14:25;2.87;;;1.13;;
6667;SDS011;3370;47.712;9.082;2023-03-31T14:16:54;4.07;;;1.33;;
6667;SDS011;3370;47.712;9.082;2023-03-31T14:25:40;1.97;;;1.20;;
6667;SDS011;3370;47.712;9.082;2023-03-31T14:31:08;3.90;;;1.97;;
6667;SDS011;3370;47.712;9.082;2023-03-31T14:37:06;4.60;;;2.37;;
6667;SDS011;3370;47.712;9.082;2023-03-31T14:39:39;3.23;;;2.30;;
6667;SDS011;3370;47.712;9.082;2023-03-31T14:42:12;6.73;;;2.30;;
6667;SDS011;3370;47.712;9.082;2023-03-31T14:44:41;3.40;;;2.43;;
6667;SDS011;3370;47.712;9.082;2023-03-31T14:47:27;5.60;;;2.20;;
6667;SDS011;3370;47.712;9.082;2023-03-31T14:50:00;4.17;;;2.33;;
6667;SDS011;3370;47.712;9.082;2023-03-31T14:52:40;3.90;;;2.37;;
6667;SDS011;3370;47.712;9.082;2023-03-31T14:55:16;3.50;;;2.20;;
6667;SDS011;3370;47.712;9.082;2023-03-31T14:57:47;2.87;;;2.40;;
6667;SDS011;3370;47.712;9.082;2023-03-31T15:00:19;2.90;;;1.80;;
6667;SDS011;3370;47.712;9.082;2023-03-31T15:02:52;2.93;;;1.60;;
6667;SDS011;3370;47.712;9.082;2023-03-31T15:05:31;1.67;;;1.53;;
6667;SDS011;3370;47.712;9.082;2023-03-31T15:08:04;2.63;;;1.70;;
6667;SDS011;3370;47.712;9.082;2023-03-31T15:10:39;2.47;;;1.90;;
6667;SDS011;3370;47.712;9.082;2023-03-31T15:13:16;5.80;;;2.33;;
6667;SDS011;3370;47.712;9.082;2023-03-31T15:15:56;3.10;;;2.40;;
6667;SDS011;3370;47.712;9.082;2023-03-31T15:18:24;5.63;;;3.10;;
6667;SDS011;3370;47.712;9.082;2023-03-31T15:20:51;6.40;;;1.87;;
6667;SDS011;3370;47.712;9.082;2023-03-31T15:23:21;1.47;;;1.37;;
6667;SDS011;3370;47.712;9.082;2023-03-31T15:25:59;3.23;;;1.60;;
6667;SDS011;3370;47.712;9.082;2023-03-31T15:28:36;3.83;;;1.60;;
6667;SDS011;3370;47.712;9.082;2023-03-31T15:31:13;1.40;;;1.10;;
6667;SDS011;3370;47.712;9.082;2023-03-31T15:33:40;1.00;;;0.90;;
6667;SDS011;3370;47.712;9.082;2023-03-31T15:36:07;1.87;;;0.90;;
6667;SDS011;3370;47.712;9.082;2023-03-31T15:38:35;2.00;;;0.90;;
6667;SDS011;3370;47.712;9.082;2023-03-31T15:41:01;4.63;;;1.23;;
6667;SDS011;3370;47.712;9.082;2023-03-31T15:43:31;1.03;;;0.77;;
6667;SDS011;3370;47.712;9.082;2023-03-31T15:49:03;0.87;;;0.87;;
6667;SDS011;3370;47.712;9.082;2023-03-31T15:51:42;2.73;;;1.43;;
6667;SDS011;3370;47.712;9.082;2023-03-31T15:57:05;2.17;;;1.10;;
6667;SDS011;3370;47.712;9.082;2023-03-31T15:59:46;0.60;;;0.60;;
6667;SDS011;3370;47.712;9.082;2023-03-31T16:02:15;2.60;;;0.90;;
6667;SDS011;3370;47.712;9.082;2023-03-31T16:08:35;1.97;;;1.13;;
6667;SDS011;3370;47.712;9.082;2023-03-31T16:11:22;3.50;;;1.57;;
6667;SDS011;3370;47.712;9.082;2023-03-31T16:13:58;1.17;;;1.03;;
6667;SDS011;3370;47.712;9.082;2023-03-31T16:16:29;1.27;;;0.97;;
6667;SDS011;3370;47.712;9.082;2023-03-31T16:19:01;1.47;;;1.00;;
6667;SDS011;3370;47.712;9.082;2023-03-31T16:21:35;1.40;;;1.00;;
6667;SDS011;3370;47.712;9.082;2023-03-31T16:24:05;2.00;;;1.10;;
6667;SDS011;3370;47.712;9.082;2023-03-31T16:26:32;3.53;;;1.20;;
6667;SDS011;3370;47.712;9.082;2023-03-31T16:28:59;1.00;;;1.00;;
6667;SDS011;3370;47.712;9.082;2023-03-31T16:31:30;2.07;;;1.20;;
6667;SDS011;3370;47.712;9.082;2023-03-31T16:34:05;3.97;;;0.97;;
6667;SDS011;3370;47.712;9.082;2023-03-31T16:36:33;2.13;;;1.00;;
6667;SDS011;3370;47.712;9.082;2023-03-31T16:38:59;2.27;;;1.20;;
6667;SDS011;3370;47.712;9.082;2023-03-31T16:41:29;6.97;;;1.83;;
6667;SDS011;3370;47.712;9.082;2023-03-31T16:43:56;1.93;;;0.90;;
6667;SDS011;3370;47.712;9.082;2023-03-31T16:46:22;2.20;;;0.80;;
6667;SDS011;3370;47.712;9.082;2023-03-31T16:48:49;3.30;;;0.90;;
6667;SDS011;3370;47.712;9.082;2023-03-31T16:51:16;1.73;;;1.20;;
6667;SDS011;3370;47.712;9.082;2023-03-31T16:53:43;2.23;;;1.10;;
6667;SDS011;3370;47.712;9.082;2023-03-31T16:56:11;0.97;;;0.97;;
6667;SDS011;3370;47.712;9.082;2023-03-31T16:58:38;2.67;;;0.90;;
6667;SDS011;3370;47.712;9.082;2023-03-31T17:01:05;1.40;;;0.80;;
6667;SDS011;3370;47.712;9.082;2023-03-31T17:03:32;2.10;;;0.90;;
6667;SDS011;3370;47.712;9.082;2023-03-31T17:06:03;3.00;;;1.23;;
6667;SDS011;3370;47.712;9.082;2023-03-31T17:08:32;2.40;;;0.90;;
6667;SDS011;3370;47.712;9.082;2023-03-31T17:11:02;3.90;;;1.23;;
6667;SDS011;3370;47.712;9.082;2023-03-31T17:13:35;2.20;;;1.07;;
6667;SDS011;3370;47.712;9.082;2023-03-31T17:16:02;1.20;;;0.90;;
6667;SDS011;3370;47.712;9.082;2023-03-31T17:18:29;3.43;;;1.43;;
6667;SDS011;3370;47.712;9.082;2023-03-31T17:21:04;1.20;;;0.83;;
6667;SDS011;3370;47.712;9.082;2023-03-31T17:23:32;1.13;;;1.03;;
6667;SDS011;3370;47.712;9.082;2023-03-31T17:25:58;1.40;;;1.10;;
6667;SDS011;3370;47.712;9.082;2023-03-31T17:28:25;0.93;;;0.90;;
6667;SDS011;3370;47.712;9.082;2023-03-31T17:30:51;1.00;;;1.00;;
6667;SDS011;3370;47.712;9.082;2023-03-31T17:33:16;2.73;;;0.90;;
6667;SDS011;3370;47.712;9.082;2023-03-31T17:35:42;0.83;;;0.80;;
6667;SDS011;3370;47.712;9.082;2023-03-31T17:38:08;1.73;;;1.10;;
6667;SDS011;3370;47.712;9.082;2023-03-31T17:40:36;3.50;;;1.30;;
6667;SDS011;3370;47.712;9.082;2023-03-31T17:43:02;3.53;;;1.27;;
6667;SDS011;3370;47.712;9.082;2023-03-31T17:45:28;1.83;;;1.37;;
6667;SDS011;3370;47.712;9.082;2023-03-31T17:47:56;1.53;;;1.20;;
6667;SDS011;3370;47.712;9.082;2023-03-31T17:50:23;1.43;;;1.10;;
6667;SDS011;3370;47.712;9.082;2023-03-31T17:52:50;2.87;;;1.20;;
6667;SDS011;3370;47.712;9.082;2023-03-31T17:55:16;3.90;;;1.30;;
6667;SDS011;3370;47.712;9.082;2023-03-31T17:57:43;2.20;;;0.90;;
6667;SDS011;3370;47.712;9.082;2023-03-31T18:00:10;1.23;;;0.90;;
6667;SDS011;3370;47.712;9.082;2023-03-31T18:02:39;2.40;;;1.33;;
6667;SDS011;3370;47.712;9.082;2023-03-31T18:05:06;1.43;;;1.00;;
6667;SDS011;3370;47.712;9.082;2023-03-31T18:07:34;1.73;;;1.30;;
6667;SDS011;3370;47.712;9.082;2023-03-31T18:10:01;4.60;;;1.10;;
6667;SDS011;3370;47.712;9.082;2023-03-31T18:12:29;1.20;;;0.93;;
6667;SDS011;3370;47.712;9.082;2023-03-31T18:14:57;5.60;;;1.30;;
6667;SDS011;3370;47.712;9.082;2023-03-31T18:17:23;1.30;;;1.20;;
6667;SDS011;3370;47.712;9.082;2023-03-31T18:19:49;1.90;;;1.27;;
6667;SDS011;3370;47.712;9.082;2023-03-31T18:22:14;4.40;;;1.00;;
6667;SDS011;3370;47.712;9.082;2023-03-31T18:24:40;3.13;;;1.30;;
6667;SDS011;3370;47.712;9.082;2023-03-31T18:27:06;1.83;;;1.73;;
6667;SDS011;3370;47.712;9.082;2023-03-31T18:29:32;1.10;;;1.00;;
6667;SDS011;3370;47.712;9.082;2023-03-31T18:31:58;5.80;;;1.50;;
6667;SDS011;3370;47.712;9.082;2023-03-31T18:34:24;5.10;;;1.50;;
6667;SDS011;3370;47.712;9.082;2023-03-31T18:36:50;1.80;;;1.23;;
6667;SDS011;3370;47.712;9.082;2023-03-31T18:39:16;3.83;;;1.40;;
6667;SDS011;3370;47.712;9.082;2023-03-31T18:41:45;9.10;;;1.60;;
6667;SDS011;3370;47.712;9.082;2023-03-31T18:44:12;3.00;;;1.07;;